sensor_id;sensor_type;location;lat;lon;timestamp;P1;durP1;ratioP1;P2;durP2;ratioP2
13321;SDS011;6730;46.248;6.930;2022-09-17T00:00:30;2.38;;;2.17;;
13321;SDS011;6730;46.248;6.930;2022-09-17T00:02:56;3.67;;;2.38;;
13321;SDS011;6730;46.248;6.930;2022-09-17T00:05:22;3.38;;;2.13;;
13321;SDS011;6730;46.248;6.930;2022-09-17T00:07:49;2.58;;;1.80;;
13321;SDS011;6730;46.248;6.930;2022-09-17T00:10:17;3.08;;;2.00;;
13321;SDS011;6730;46.248;6.930;2022-09-17T00:12:44;2.42;;;2.05;;
13321;SDS011;6730;46.248;6.930;2022-09-17T00:15:10;2.63;;;2.03;;
13321;SDS011;6730;46.248;6.930;2022-09-17T00:17:36;2.03;;;1.73;;
13321;SDS011;6730;46.248;6.930;2022-09-17T00:20:02;2.90;;;1.83;;
13321;SDS011;6730;46.248;6.930;2022-09-17T00:22:29;2.35;;;1.90;;
13321;SDS011;6730;46.248;6.930;2022-09-17T00:24:54;5.18;;;1.63;;
13321;SDS011;6730;46.248;6.930;2022-09-17T00:27:20;2.47;;;1.80;;
13321;SDS011;6730;46.248;6.930;2022-09-17T00:29:46;4.25;;;2.08;;
13321;SDS011;6730;46.248;6.930;2022-09-17T00:32:12;1.60;;;1.50;;
13321;SDS011;6730;46.248;6.930;2022-09-17T00:34:38;3.35;;;1.80;;
13321;SDS011;6730;46.248;6.930;2022-09-17T00:37:03;2.50;;;1.65;;
13321;SDS011;6730;46.248;6.930;2022-09-17T00:39:29;2.85;;;1.88;;
13321;SDS011;6730;46.248;6.930;2022-09-17T00:41:55;2.75;;;1.70;;
13321;SDS011;6730;46.248;6.930;2022-09-17T00:50:03;2.25;;;1.50;;
13321;SDS011;6730;46.248;6.930;2022-09-17T00:52:49;1.65;;;1.52;;
13321;SDS011;6730;46.248;6.930;2022-09-17T00:55:52;1.60;;;1.50;;
13321;SDS011;6730;46.248;6.930;2022-09-17T00:58:13;1.40;;;1.30;;
13321;SDS011;6730;46.248;6.930;2022-09-17T01:00:41;1.90;;;1.70;;
13321;SDS011;6730;46.248;6.930;2022-09-17T01:03:07;1.73;;;1.40;;
13321;SDS011;6730;46.248;6.930;2022-09-17T01:05:42;2.40;;;1.67;;
13321;SDS011;6730;46.248;6.930;2022-09-17T01:22:17;4.18;;;2.35;;
13321;SDS011;6730;46.248;6.930;2022-09-17T01:25:21;1.88;;;1.50;;
13321;SDS011;6730;46.248;6.930;2022-09-17T01:42:26;1.85;;;1.40;;
13321;SDS011;6730;46.248;6.930;2022-09-17T01:45:03;2.95;;;1.90;;
13321;SDS011;6730;46.248;6.930;2022-09-17T01:47:33;1.92;;;1.80;;
13321;SDS011;6730;46.248;6.930;2022-09-17T01:50:07;4.57;;;1.80;;
13321;SDS011;6730;46.248;6.930;2022-09-17T01:52:38;2.13;;;1.90;;
13321;SDS011;6730;46.248;6.930;2022-09-17T01:55:10;2.20;;;2.00;;
13321;SDS011;6730;46.248;6.930;2022-09-17T02:00:09;1.60;;;1.50;;
13321;SDS011;6730;46.248;6.930;2022-09-17T02:02:45;2.97;;;1.60;;
13321;SDS011;6730;46.248;6.930;2022-09-17T02:08:20;4.68;;;1.90;;
13321;SDS011;6730;46.248;6.930;2022-09-17T02:10:54;4.18;;;1.50;;
13321;SDS011;6730;46.248;6.930;2022-09-17T02:16:33;2.38;;;1.70;;
13321;SDS011;6730;46.248;6.930;2022-09-17T02:19:03;2.50;;;1.55;;
13321;SDS011;6730;46.248;6.930;2022-09-17T02:21:42;2.65;;;1.50;;
13321;SDS011;6730;46.248;6.930;2022-09-17T02:24:21;2.97;;;1.65;;
13321;SDS011;6730;46.248;6.930;2022-09-17T02:26:55;2.00;;;1.30;;
13321;SDS011;6730;46.248;6.930;2022-09-17T02:29:24;4.30;;;1.70;;
13321;SDS011;6730;46.248;6.930;2022-09-17T02:31:54;1.60;;;1.48;;
13321;SDS011;6730;46.248;6.930;2022-09-17T02:34:20;1.80;;;1.45;;
13321;SDS011;6730;46.248;6.930;2022-09-17T02:36:47;1.20;;;1.10;;
13321;SDS011;6730;46.248;6.930;2022-09-17T02:39:13;2.53;;;1.40;;
13321;SDS011;6730;46.248;6.930;2022-09-17T02:44:09;1.95;;;1.30;;
13321;SDS011;6730;46.248;6.930;2022-09-17T02:46:46;1.42;;;1.33;;
13321;SDS011;6730;46.248;6.930;2022-09-17T02:54:39;1.75;;;1.30;;
13321;SDS011;6730;46.248;6.930;2022-09-17T02:57:37;1.20;;;1.10;;
13321;SDS011;6730;46.248;6.930;2022-09-17T03:05:17;2.10;;;1.40;;
13321;SDS011;6730;46.248;6.930;2022-09-17T03:07:45;3.17;;;1.30;;
13321;SDS011;6730;46.248;6.930;2022-09-17T03:10:11;1.27;;;1.17;;
13321;SDS011;6730;46.248;6.930;2022-09-17T03:12:37;2.30;;;1.27;;
13321;SDS011;6730;46.248;6.930;2022-09-17T03:15:03;1.85;;;1.20;;
13321;SDS011;6730;46.248;6.930;2022-09-17T03:17:29;1.40;;;1.10;;
13321;SDS011;6730;46.248;6.930;2022-09-17T03:19:55;1.40;;;1.30;;
13321;SDS011;6730;46.248;6.930;2022-09-17T03:22:21;1.52;;;1.20;;
13321;SDS011;6730;46.248;6.930;2022-09-17T03:24:46;1.42;;;0.90;;
13321;SDS011;6730;46.248;6.930;2022-09-17T03:27:12;1.40;;;1.20;;
13321;SDS011;6730;46.248;6.930;2022-09-17T03:29:37;1.45;;;1.20;;
13321;SDS011;6730;46.248;6.930;2022-09-17T03:32:03;1.17;;;1.08;;
13321;SDS011;6730;46.248;6.930;2022-09-17T03:34:29;4.05;;;1.17;;
13321;SDS011;6730;46.248;6.930;2022-09-17T03:36:55;2.13;;;0.95;;
13321;SDS011;6730;46.248;6.930;2022-09-17T03:39:21;1.27;;;1.00;;
13321;SDS011;6730;46.248;6.930;2022-09-17T03:41:46;1.17;;;1.00;;
13321;SDS011;6730;46.248;6.930;2022-09-17T03:44:12;1.20;;;1.10;;
13321;SDS011;6730;46.248;6.930;2022-09-17T03:46:39;2.58;;;1.02;;
13321;SDS011;6730;46.248;6.930;2022-09-17T03:49:05;1.83;;;1.10;;
13321;SDS011;6730;46.248;6.930;2022-09-17T03:51:31;2.30;;;0.90;;
13321;SDS011;6730;46.248;6.930;2022-09-17T03:53:56;1.63;;;1.10;;
13321;SDS011;6730;46.248;6.930;2022-09-17T03:56:22;1.42;;;0.90;;
13321;SDS011;6730;46.248;6.930;2022-09-17T03:58:48;4.03;;;1.20;;
13321;SDS011;6730;46.248;6.930;2022-09-17T04:01:13;2.83;;;1.13;;
13321;SDS011;6730;46.248;6.930;2022-09-17T04:03:39;2.45;;;0.75;;
13321;SDS011;6730;46.248;6.930;2022-09-17T04:06:05;3.60;;;1.08;;
13321;SDS011;6730;46.248;6.930;2022-09-17T04:08:30;1.88;;;1.17;;
13321;SDS011;6730;46.248;6.930;2022-09-17T04:10:56;2.75;;;0.90;;
13321;SDS011;6730;46.248;6.930;2022-09-17T04:13:22;2.15;;;0.90;;
13321;SDS011;6730;46.248;6.930;2022-09-17T04:15:48;1.33;;;1.00;;
13321;SDS011;6730;46.248;6.930;2022-09-17T04:18:14;1.70;;;1.10;;
13321;SDS011;6730;46.248;6.930;2022-09-17T04:20:40;1.75;;;1.33;;
13321;SDS011;6730;46.248;6.930;2022-09-17T04:23:07;1.80;;;1.05;;
13321;SDS011;6730;46.248;6.930;2022-09-17T04:25:35;1.10;;;1.00;;
13321;SDS011;6730;46.248;6.930;2022-09-17T04:28:00;1.10;;;1.00;;
13321;SDS011;6730;46.248;6.930;2022-09-17T04:30:26;3.05;;;1.00;;
13321;SDS011;6730;46.248;6.930;2022-09-17T04:32:52;2.25;;;0.90;;
13321;SDS011;6730;46.248;6.930;2022-09-17T04:35:17;1.13;;;0.90;;
13321;SDS011;6730;46.248;6.930;2022-09-17T04:37:43;0.80;;;0.80;;
13321;SDS011;6730;46.248;6.930;2022-09-17T04:40:16;0.80;;;0.80;;
13321;SDS011;6730;46.248;6.930;2022-09-17T04:42:42;1.10;;;0.98;;
13321;SDS011;6730;46.248;6.930;2022-09-17T04:45:07;1.02;;;0.88;;
13321;SDS011;6730;46.248;6.930;2022-09-17T04:47:36;2.20;;;0.90;;
13321;SDS011;6730;46.248;6.930;2022-09-17T04:50:03;1.23;;;1.05;;
13321;SDS011;6730;46.248;6.930;2022-09-17T04:52:30;0.80;;;0.80;;
13321;SDS011;6730;46.248;6.930;2022-09-17T04:54:56;0.80;;;0.80;;
13321;SDS011;6730;46.248;6.930;2022-09-17T04:57:22;0.80;;;0.80;;
13321;SDS011;6730;46.248;6.930;2022-09-17T04:59:49;1.23;;;0.98;;
13321;SDS011;6730;46.248;6.930;2022-09-17T05:02:16;1.95;;;0.90;;
13321;SDS011;6730;46.248;6.930;2022-09-17T05:04:41;0.90;;;0.90;;
13321;SDS011;6730;46.248;6.930;2022-09-17T05:07:07;0.80;;;0.80;;
13321;SDS011;6730;46.248;6.930;2022-09-17T05:09:33;1.10;;;1.00;;
13321;SDS011;6730;46.248;6.930;2022-09-17T05:11:58;1.73;;;1.00;;
13321;SDS011;6730;46.248;6.930;2022-09-17T05:14:24;1.35;;;1.00;;
13321;SDS011;6730;46.248;6.930;2022-09-17T05:16:50;1.30;;;1.00;;
13321;SDS011;6730;46.248;6.930;2022-09-17T05:19:15;0.82;;;0.73;;
13321;SDS011;6730;46.248;6.930;2022-09-17T05:21:41;1.50;;;0.90;;
13321;SDS011;6730;46.248;6.930;2022-09-17T05:24:07;0.93;;;0.80;;
13321;SDS011;6730;46.248;6.930;2022-09-17T05:26:33;0.85;;;0.80;;
13321;SDS011;6730;46.248;6.930;2022-09-17T05:28:59;0.80;;;0.80;;
13321;SDS011;6730;46.248;6.930;2022-09-17T05:31:25;1.20;;;0.80;;
13321;SDS011;6730;46.248;6.930;2022-09-17T05:33:53;0.60;;;0.60;;
13321;SDS011;6730;46.248;6.930;2022-09-17T05:36:23;0.80;;;0.80;;
13321;SDS011;6730;46.248;6.930;2022-09-17T05:38:49;0.65;;;0.63;;
13321;SDS011;6730;46.248;6.930;2022-09-17T05:41:18;0.77;;;0.77;;
13321;SDS011;6730;46.248;6.930;2022-09-17T05:43:44;2.25;;;0.82;;
13321;SDS011;6730;46.248;6.930;2022-09-17T05:46:10;0.70;;;0.70;;
13321;SDS011;6730;46.248;6.930;2022-09-17T05:48:39;1.30;;;0.73;;
13321;SDS011;6730;46.248;6.930;2022-09-17T05:51:08;2.35;;;0.82;;
13321;SDS011;6730;46.248;6.930;2022-09-17T05:53:34;0.65;;;0.50;;
13321;SDS011;6730;46.248;6.930;2022-09-17T05:56:00;0.50;;;0.50;;
13321;SDS011;6730;46.248;6.930;2022-09-17T05:58:26;0.95;;;0.70;;
13321;SDS011;6730;46.248;6.930;2022-09-17T06:00:51;0.60;;;0.60;;
13321;SDS011;6730;46.248;6.930;2022-09-17T06:03:20;1.52;;;0.90;;
13321;SDS011;6730;46.248;6.930;2022-09-17T06:05:59;0.93;;;0.70;;
13321;SDS011;6730;46.248;6.930;2022-09-17T06:08:25;1.70;;;0.70;;
13321;SDS011;6730;46.248;6.930;2022-09-17T06:10:53;1.20;;;0.60;;
13321;SDS011;6730;46.248;6.930;2022-09-17T06:13:19;0.82;;;0.60;;
13321;SDS011;6730;46.248;6.930;2022-09-17T06:15:49;1.25;;;0.60;;
13321;SDS011;6730;46.248;6.930;2022-09-17T06:18:16;0.60;;;0.60;;
13321;SDS011;6730;46.248;6.930;2022-09-17T06:20:42;1.08;;;0.75;;
13321;SDS011;6730;46.248;6.930;2022-09-17T06:23:20;0.68;;;0.60;;
13321;SDS011;6730;46.248;6.930;2022-09-17T06:25:52;0.70;;;0.70;;
13321;SDS011;6730;46.248;6.930;2022-09-17T06:28:20;0.68;;;0.68;;
13321;SDS011;6730;46.248;6.930;2022-09-17T06:30:46;1.55;;;0.80;;
13321;SDS011;6730;46.248;6.930;2022-09-17T06:33:13;0.82;;;0.77;;
13321;SDS011;6730;46.248;6.930;2022-09-17T06:35:39;1.02;;;0.90;;
13321;SDS011;6730;46.248;6.930;2022-09-17T06:38:06;1.00;;;0.90;;
13321;SDS011;6730;46.248;6.930;2022-09-17T06:40:32;1.08;;;0.70;;
13321;SDS011;6730;46.248;6.930;2022-09-17T06:42:58;1.48;;;0.80;;
13321;SDS011;6730;46.248;6.930;2022-09-17T06:45:27;1.10;;;0.77;;
13321;SDS011;6730;46.248;6.930;2022-09-17T06:47:53;0.70;;;0.70;;
13321;SDS011;6730;46.248;6.930;2022-09-17T06:50:19;3.17;;;0.70;;
13321;SDS011;6730;46.248;6.930;2022-09-17T06:52:48;2.78;;;0.90;;
13321;SDS011;6730;46.248;6.930;2022-09-17T06:55:18;2.53;;;2.00;;
13321;SDS011;6730;46.248;6.930;2022-09-17T06:57:45;2.92;;;1.20;;
13321;SDS011;6730;46.248;6.930;2022-09-17T07:00:11;1.55;;;1.08;;
13321;SDS011;6730;46.248;6.930;2022-09-17T07:02:38;1.38;;;0.90;;
13321;SDS011;6730;46.248;6.930;2022-09-17T07:05:04;1.45;;;1.10;;
13321;SDS011;6730;46.248;6.930;2022-09-17T07:07:30;1.08;;;1.00;;
13321;SDS011;6730;46.248;6.930;2022-09-17T07:09:56;1.63;;;0.98;;
13321;SDS011;6730;46.248;6.930;2022-09-17T07:12:21;2.45;;;1.13;;
13321;SDS011;6730;46.248;6.930;2022-09-17T07:14:47;1.05;;;0.95;;
13321;SDS011;6730;46.248;6.930;2022-09-17T07:17:13;1.27;;;1.17;;
13321;SDS011;6730;46.248;6.930;2022-09-17T07:19:39;3.85;;;1.08;;
13321;SDS011;6730;46.248;6.930;2022-09-17T07:22:05;4.68;;;0.80;;
13321;SDS011;6730;46.248;6.930;2022-09-17T07:24:31;3.22;;;0.95;;
13321;SDS011;6730;46.248;6.930;2022-09-17T07:26:57;0.75;;;0.75;;
13321;SDS011;6730;46.248;6.930;2022-09-17T07:29:23;0.75;;;0.70;;
13321;SDS011;6730;46.248;6.930;2022-09-17T07:31:51;0.82;;;0.82;;
13321;SDS011;6730;46.248;6.930;2022-09-17T07:34:20;1.80;;;0.90;;
13321;SDS011;6730;46.248;6.930;2022-09-17T07:36:46;1.00;;;0.80;;
13321;SDS011;6730;46.248;6.930;2022-09-17T07:39:11;0.65;;;0.65;;
13321;SDS011;6730;46.248;6.930;2022-09-17T07:41:40;1.75;;;0.80;;
13321;SDS011;6730;46.248;6.930;2022-09-17T07:44:05;1.85;;;0.80;;
13321;SDS011;6730;46.248;6.930;2022-09-17T07:46:31;1.33;;;0.90;;
13321;SDS011;6730;46.248;6.930;2022-09-17T07:48:57;1.25;;;0.77;;
13321;SDS011;6730;46.248;6.930;2022-09-17T07:51:23;0.93;;;0.80;;
13321;SDS011;6730;46.248;6.930;2022-09-17T07:53:52;1.33;;;0.82;;
13321;SDS011;6730;46.248;6.930;2022-09-17T07:56:20;0.90;;;0.77;;
13321;SDS011;6730;46.248;6.930;2022-09-17T07:58:46;1.35;;;0.73;;
13321;SDS011;6730;46.248;6.930;2022-09-17T08:01:12;1.30;;;0.90;;
13321;SDS011;6730;46.248;6.930;2022-09-17T08:03:40;2.92;;;0.80;;
13321;SDS011;6730;46.248;6.930;2022-09-17T08:06:08;1.00;;;0.90;;
13321;SDS011;6730;46.248;6.930;2022-09-17T08:08:36;1.27;;;0.80;;
13321;SDS011;6730;46.248;6.930;2022-09-17T08:11:04;0.80;;;0.80;;
13321;SDS011;6730;46.248;6.930;2022-09-17T08:13:31;2.00;;;1.00;;
13321;SDS011;6730;46.248;6.930;2022-09-17T08:16:00;2.42;;;0.93;;
13321;SDS011;6730;46.248;6.930;2022-09-17T08:18:28;1.33;;;0.90;;
13321;SDS011;6730;46.248;6.930;2022-09-17T08:20:57;3.95;;;0.95;;
13321;SDS011;6730;46.248;6.930;2022-09-17T08:23:27;2.95;;;1.00;;
13321;SDS011;6730;46.248;6.930;2022-09-17T08:25:54;1.40;;;0.80;;
13321;SDS011;6730;46.248;6.930;2022-09-17T08:28:21;2.10;;;0.90;;
13321;SDS011;6730;46.248;6.930;2022-09-17T08:30:48;0.82;;;0.73;;
13321;SDS011;6730;46.248;6.930;2022-09-17T08:33:14;1.58;;;0.90;;
13321;SDS011;6730;46.248;6.930;2022-09-17T08:35:41;0.98;;;0.77;;
13321;SDS011;6730;46.248;6.930;2022-09-17T08:38:06;0.73;;;0.73;;
13321;SDS011;6730;46.248;6.930;2022-09-17T08:40:33;1.00;;;0.75;;
13321;SDS011;6730;46.248;6.930;2022-09-17T08:43:10;1.38;;;0.82;;
13321;SDS011;6730;46.248;6.930;2022-09-17T08:45:41;0.80;;;0.70;;
13321;SDS011;6730;46.248;6.930;2022-09-17T08:48:07;1.02;;;0.65;;
13321;SDS011;6730;46.248;6.930;2022-09-17T08:50:37;0.88;;;0.82;;
13321;SDS011;6730;46.248;6.930;2022-09-17T08:55:39;1.00;;;0.70;;
13321;SDS011;6730;46.248;6.930;2022-09-17T09:01:05;1.13;;;0.70;;
13321;SDS011;6730;46.248;6.930;2022-09-17T09:06:14;1.90;;;0.90;;
13321;SDS011;6730;46.248;6.930;2022-09-17T09:08:55;0.88;;;0.70;;
13321;SDS011;6730;46.248;6.930;2022-09-17T09:11:27;0.60;;;0.60;;
13321;SDS011;6730;46.248;6.930;2022-09-17T09:16:40;1.40;;;0.75;;
13321;SDS011;6730;46.248;6.930;2022-09-17T09:19:13;1.42;;;0.80;;
13321;SDS011;6730;46.248;6.930;2022-09-17T09:24:47;0.70;;;0.70;;
13321;SDS011;6730;46.248;6.930;2022-09-17T09:27:44;0.52;;;0.52;;
13321;SDS011;6730;46.248;6.930;2022-09-17T09:30:17;1.42;;;0.80;;
13321;SDS011;6730;46.248;6.930;2022-09-17T09:32:53;0.73;;;0.70;;
13321;SDS011;6730;46.248;6.930;2022-09-17T09:35:21;1.40;;;0.70;;
13321;SDS011;6730;46.248;6.930;2022-09-17T09:40:40;1.08;;;0.75;;
13321;SDS011;6730;46.248;6.930;2022-09-17T09:57:44;0.88;;;0.80;;
13321;SDS011;6730;46.248;6.930;2022-09-17T10:00:26;1.60;;;0.80;;
13321;SDS011;6730;46.248;6.930;2022-09-17T10:03:12;1.20;;;0.80;;
13321;SDS011;6730;46.248;6.930;2022-09-17T10:05:56;0.70;;;0.70;;
13321;SDS011;6730;46.248;6.930;2022-09-17T10:08:24;0.65;;;0.65;;
13321;SDS011;6730;46.248;6.930;2022-09-17T10:13:31;1.58;;;0.70;;
13321;SDS011;6730;46.248;6.930;2022-09-17T10:16:21;1.17;;;0.63;;
13321;SDS011;6730;46.248;6.930;2022-09-17T10:19:35;0.73;;;0.60;;
13321;SDS011;6730;46.248;6.930;2022-09-17T10:21:49;1.75;;;0.95;;
13321;SDS011;6730;46.248;6.930;2022-09-17T10:24:23;1.65;;;0.80;;
13321;SDS011;6730;46.248;6.930;2022-09-17T10:27:05;2.58;;;0.77;;
13321;SDS011;6730;46.248;6.930;2022-09-17T10:29:40;5.03;;;0.63;;
13321;SDS011;6730;46.248;6.930;2022-09-17T10:32:12;0.65;;;0.65;;
13321;SDS011;6730;46.248;6.930;2022-09-17T10:34:40;1.08;;;0.70;;
13321;SDS011;6730;46.248;6.930;2022-09-17T10:37:32;1.00;;;0.68;;
13321;SDS011;6730;46.248;6.930;2022-09-17T10:39:58;1.13;;;0.80;;
13321;SDS011;6730;46.248;6.930;2022-09-17T10:42:24;1.80;;;0.60;;
13321;SDS011;6730;46.248;6.930;2022-09-17T10:44:51;1.25;;;0.80;;
13321;SDS011;6730;46.248;6.930;2022-09-17T10:47:24;0.98;;;0.93;;
13321;SDS011;6730;46.248;6.930;2022-09-17T10:49:55;1.08;;;0.80;;
13321;SDS011;6730;46.248;6.930;2022-09-17T10:52:30;2.40;;;0.70;;
13321;SDS011;6730;46.248;6.930;2022-09-17T10:55:32;0.98;;;0.80;;
13321;SDS011;6730;46.248;6.930;2022-09-17T10:58:01;3.45;;;0.90;;
13321;SDS011;6730;46.248;6.930;2022-09-17T11:08:54;0.90;;;0.80;;
13321;SDS011;6730;46.248;6.930;2022-09-17T11:11:29;1.33;;;1.08;;
13321;SDS011;6730;46.248;6.930;2022-09-17T11:27:48;1.00;;;0.73;;
13321;SDS011;6730;46.248;6.930;2022-09-17T11:30:27;1.73;;;1.00;;
13321;SDS011;6730;46.248;6.930;2022-09-17T11:36:04;0.73;;;0.70;;
13321;SDS011;6730;46.248;6.930;2022-09-17T11:38:48;3.63;;;0.90;;
13321;SDS011;6730;46.248;6.930;2022-09-17T11:41:16;0.57;;;0.57;;
13321;SDS011;6730;46.248;6.930;2022-09-17T11:43:58;1.20;;;0.80;;
13321;SDS011;6730;46.248;6.930;2022-09-17T11:46:32;1.50;;;0.70;;
13321;SDS011;6730;46.248;6.930;2022-09-17T11:49:05;2.38;;;0.82;;
13321;SDS011;6730;46.248;6.930;2022-09-17T11:51:43;1.00;;;0.80;;
13321;SDS011;6730;46.248;6.930;2022-09-17T11:54:34;0.90;;;0.80;;
13321;SDS011;6730;46.248;6.930;2022-09-17T11:57:14;1.30;;;0.70;;
13321;SDS011;6730;46.248;6.930;2022-09-17T11:59:43;0.80;;;0.80;;
13321;SDS011;6730;46.248;6.930;2022-09-17T12:02:18;0.85;;;0.60;;
13321;SDS011;6730;46.248;6.930;2022-09-17T12:15:41;1.33;;;0.90;;
13321;SDS011;6730;46.248;6.930;2022-09-17T12:18:23;1.77;;;0.98;;
13321;SDS011;6730;46.248;6.930;2022-09-17T12:20:53;2.40;;;0.77;;
13321;SDS011;6730;46.248;6.930;2022-09-17T12:23:27;0.73;;;0.70;;
13321;SDS011;6730;46.248;6.930;2022-09-17T12:26:15;1.45;;;0.88;;
13321;SDS011;6730;46.248;6.930;2022-09-17T12:28:47;2.15;;;0.70;;
13321;SDS011;6730;46.248;6.930;2022-09-17T12:34:10;0.50;;;0.50;;
13321;SDS011;6730;46.248;6.930;2022-09-17T12:40:31;1.33;;;0.80;;
13321;SDS011;6730;46.248;6.930;2022-09-17T12:43:11;0.50;;;0.50;;
13321;SDS011;6730;46.248;6.930;2022-09-17T13:00:19;2.63;;;0.98;;
13321;SDS011;6730;46.248;6.930;2022-09-17T13:05:30;1.10;;;0.70;;
13321;SDS011;6730;46.248;6.930;2022-09-17T13:08:35;1.33;;;0.77;;
13321;SDS011;6730;46.248;6.930;2022-09-17T13:13:42;0.57;;;0.55;;
13321;SDS011;6730;46.248;6.930;2022-09-17T13:19:23;0.75;;;0.75;;
13321;SDS011;6730;46.248;6.930;2022-09-17T13:21:53;0.63;;;0.63;;
13321;SDS011;6730;46.248;6.930;2022-09-17T13:24:25;0.43;;;0.43;;
13321;SDS011;6730;46.248;6.930;2022-09-17T13:26:54;0.88;;;0.57;;
13321;SDS011;6730;46.248;6.930;2022-09-17T13:42:55;1.75;;;0.70;;
13321;SDS011;6730;46.248;6.930;2022-09-17T13:45:33;1.05;;;0.60;;
13321;SDS011;6730;46.248;6.930;2022-09-17T13:48:19;0.55;;;0.55;;
13321;SDS011;6730;46.248;6.930;2022-09-17T13:50:47;0.65;;;0.60;;
13321;SDS011;6730;46.248;6.930;2022-09-17T14:16:25;0.40;;;0.40;;
13321;SDS011;6730;46.248;6.930;2022-09-17T14:22:02;0.50;;;0.50;;
13321;SDS011;6730;46.248;6.930;2022-09-17T14:24:46;0.35;;;0.35;;
13321;SDS011;6730;46.248;6.930;2022-09-17T14:30:22;0.88;;;0.68;;
13321;SDS011;6730;46.248;6.930;2022-09-17T14:37:59;0.57;;;0.57;;
13321;SDS011;6730;46.248;6.930;2022-09-17T14:40:44;0.80;;;0.60;;
13321;SDS011;6730;46.248;6.930;2022-09-17T14:43:55;0.45;;;0.45;;
13321;SDS011;6730;46.248;6.930;2022-09-17T14:46:37;0.35;;;0.35;;
13321;SDS011;6730;46.248;6.930;2022-09-17T14:49:22;0.50;;;0.50;;
13321;SDS011;6730;46.248;6.930;2022-09-17T14:51:48;0.88;;;0.70;;
13321;SDS011;6730;46.248;6.930;2022-09-17T14:56:52;0.50;;;0.50;;
13321;SDS011;6730;46.248;6.930;2022-09-17T14:59:49;0.40;;;0.40;;
13321;SDS011;6730;46.248;6.930;2022-09-17T15:04:58;0.70;;;0.50;;
13321;SDS011;6730;46.248;6.930;2022-09-17T15:07:25;0.82;;;0.57;;
13321;SDS011;6730;46.248;6.930;2022-09-17T15:09:51;0.65;;;0.50;;
13321;SDS011;6730;46.248;6.930;2022-09-17T15:12:23;1.55;;;0.50;;
13321;SDS011;6730;46.248;6.930;2022-09-17T15:14:53;0.32;;;0.32;;
13321;SDS011;6730;46.248;6.930;2022-09-17T15:17:20;0.65;;;0.60;;
13321;SDS011;6730;46.248;6.930;2022-09-17T15:19:50;1.05;;;0.60;;
13321;SDS011;6730;46.248;6.930;2022-09-17T15:22:26;0.47;;;0.47;;
13321;SDS011;6730;46.248;6.930;2022-09-17T15:25:06;0.98;;;0.63;;
13321;SDS011;6730;46.248;6.930;2022-09-17T15:27:54;0.63;;;0.63;;
13321;SDS011;6730;46.248;6.930;2022-09-17T15:30:23;1.27;;;0.55;;
13321;SDS011;6730;46.248;6.930;2022-09-17T15:32:53;0.52;;;0.52;;
13321;SDS011;6730;46.248;6.930;2022-09-17T15:37:53;0.57;;;0.57;;
13321;SDS011;6730;46.248;6.930;2022-09-17T15:42:58;1.65;;;1.10;;
13321;SDS011;6730;46.248;6.930;2022-09-17T15:45:43;0.73;;;0.50;;
13321;SDS011;6730;46.248;6.930;2022-09-17T15:50:57;0.47;;;0.47;;
13321;SDS011;6730;46.248;6.930;2022-09-17T15:53:35;1.02;;;0.60;;
13321;SDS011;6730;46.248;6.930;2022-09-17T15:56:02;1.02;;;0.50;;
13321;SDS011;6730;46.248;6.930;2022-09-17T16:11:15;0.68;;;0.55;;
13321;SDS011;6730;46.248;6.930;2022-09-17T16:13:41;0.43;;;0.43;;
13321;SDS011;6730;46.248;6.930;2022-09-17T16:16:08;1.17;;;0.65;;
13321;SDS011;6730;46.248;6.930;2022-09-17T16:18:39;0.63;;;0.63;;
13321;SDS011;6730;46.248;6.930;2022-09-17T16:21:06;0.60;;;0.60;;
13321;SDS011;6730;46.248;6.930;2022-09-17T16:23:39;0.68;;;0.65;;
13321;SDS011;6730;46.248;6.930;2022-09-17T16:26:05;1.17;;;0.50;;
13321;SDS011;6730;46.248;6.930;2022-09-17T16:28:34;0.65;;;0.47;;
13321;SDS011;6730;46.248;6.930;2022-09-17T16:31:00;0.45;;;0.45;;
13321;SDS011;6730;46.248;6.930;2022-09-17T16:33:26;0.55;;;0.55;;
13321;SDS011;6730;46.248;6.930;2022-09-17T16:35:55;0.73;;;0.60;;
13321;SDS011;6730;46.248;6.930;2022-09-17T16:38:21;0.73;;;0.52;;
13321;SDS011;6730;46.248;6.930;2022-09-17T16:40:47;1.45;;;0.45;;
13321;SDS011;6730;46.248;6.930;2022-09-17T16:43:13;0.68;;;0.68;;
13321;SDS011;6730;46.248;6.930;2022-09-17T16:45:39;0.50;;;0.50;;
13321;SDS011;6730;46.248;6.930;2022-09-17T16:48:05;0.50;;;0.50;;
13321;SDS011;6730;46.248;6.930;2022-09-17T16:50:32;0.50;;;0.50;;
13321;SDS011;6730;46.248;6.930;2022-09-17T16:52:58;0.70;;;0.57;;
13321;SDS011;6730;46.248;6.930;2022-09-17T16:55:25;0.90;;;0.60;;
13321;SDS011;6730;46.248;6.930;2022-09-17T16:57:59;0.50;;;0.50;;
13321;SDS011;6730;46.248;6.930;2022-09-17T17:00:25;0.50;;;0.50;;
13321;SDS011;6730;46.248;6.930;2022-09-17T17:02:54;0.68;;;0.68;;
13321;SDS011;6730;46.248;6.930;2022-09-17T17:05:22;1.33;;;0.63;;
13321;SDS011;6730;46.248;6.930;2022-09-17T17:07:48;0.63;;;0.50;;
13321;SDS011;6730;46.248;6.930;2022-09-17T17:10:14;0.75;;;0.68;;
13321;SDS011;6730;46.248;6.930;2022-09-17T17:12:40;0.70;;;0.60;;
13321;SDS011;6730;46.248;6.930;2022-09-17T17:15:06;1.35;;;0.60;;
13321;SDS011;6730;46.248;6.930;2022-09-17T17:17:33;0.60;;;0.60;;
13321;SDS011;6730;46.248;6.930;2022-09-17T17:19:59;0.60;;;0.60;;
13321;SDS011;6730;46.248;6.930;2022-09-17T17:22:28;3.80;;;0.60;;
13321;SDS011;6730;46.248;6.930;2022-09-17T17:24:54;1.08;;;0.60;;
13321;SDS011;6730;46.248;6.930;2022-09-17T17:27:20;0.63;;;0.63;;
13321;SDS011;6730;46.248;6.930;2022-09-17T17:29:46;1.48;;;0.70;;
13321;SDS011;6730;46.248;6.930;2022-09-17T17:32:11;0.90;;;0.70;;
13321;SDS011;6730;46.248;6.930;2022-09-17T17:34:37;0.90;;;0.60;;
13321;SDS011;6730;46.248;6.930;2022-09-17T17:37:03;0.77;;;0.65;;
13321;SDS011;6730;46.248;6.930;2022-09-17T17:39:28;0.70;;;0.52;;
13321;SDS011;6730;46.248;6.930;2022-09-17T17:41:54;1.17;;;0.68;;
13321;SDS011;6730;46.248;6.930;2022-09-17T17:44:20;0.50;;;0.50;;
13321;SDS011;6730;46.248;6.930;2022-09-17T17:46:46;1.33;;;0.60;;
13321;SDS011;6730;46.248;6.930;2022-09-17T17:49:12;0.63;;;0.63;;
13321;SDS011;6730;46.248;6.930;2022-09-17T17:51:38;3.03;;;0.85;;
13321;SDS011;6730;46.248;6.930;2022-09-17T17:54:03;0.70;;;0.70;;
13321;SDS011;6730;46.248;6.930;2022-09-17T17:56:29;0.55;;;0.55;;
13321;SDS011;6730;46.248;6.930;2022-09-17T17:58:55;1.17;;;0.55;;
13321;SDS011;6730;46.248;6.930;2022-09-17T18:01:26;1.95;;;0.80;;
13321;SDS011;6730;46.248;6.930;2022-09-17T18:03:56;0.80;;;0.80;;
13321;SDS011;6730;46.248;6.930;2022-09-17T18:06:23;0.95;;;0.80;;
13321;SDS011;6730;46.248;6.930;2022-09-17T18:08:50;0.63;;;0.63;;
13321;SDS011;6730;46.248;6.930;2022-09-17T18:11:16;1.00;;;0.80;;
13321;SDS011;6730;46.248;6.930;2022-09-17T18:13:42;1.15;;;0.60;;
13321;SDS011;6730;46.248;6.930;2022-09-17T18:16:11;1.10;;;0.70;;
13321;SDS011;6730;46.248;6.930;2022-09-17T18:18:38;1.00;;;0.80;;
13321;SDS011;6730;46.248;6.930;2022-09-17T18:21:06;1.58;;;0.70;;
13321;SDS011;6730;46.248;6.930;2022-09-17T18:23:34;0.60;;;0.60;;
13321;SDS011;6730;46.248;6.930;2022-09-17T18:26:01;0.70;;;0.70;;
13321;SDS011;6730;46.248;6.930;2022-09-17T18:28:28;0.70;;;0.60;;
13321;SDS011;6730;46.248;6.930;2022-09-17T18:30:55;1.10;;;0.70;;
13321;SDS011;6730;46.248;6.930;2022-09-17T18:33:22;0.80;;;0.80;;
13321;SDS011;6730;46.248;6.930;2022-09-17T18:35:51;2.70;;;1.10;;
13321;SDS011;6730;46.248;6.930;2022-09-17T18:38:21;0.70;;;0.70;;
13321;SDS011;6730;46.248;6.930;2022-09-17T18:40:48;1.83;;;0.93;;
13321;SDS011;6730;46.248;6.930;2022-09-17T18:43:14;0.90;;;0.75;;
13321;SDS011;6730;46.248;6.930;2022-09-17T18:45:40;0.98;;;0.63;;
13321;SDS011;6730;46.248;6.930;2022-09-17T18:48:06;1.73;;;0.80;;
13321;SDS011;6730;46.248;6.930;2022-09-17T18:50:33;2.03;;;0.80;;
13321;SDS011;6730;46.248;6.930;2022-09-17T18:52:59;1.00;;;0.70;;
13321;SDS011;6730;46.248;6.930;2022-09-17T18:55:25;1.10;;;1.00;;
13321;SDS011;6730;46.248;6.930;2022-09-17T18:57:51;2.03;;;1.00;;
13321;SDS011;6730;46.248;6.930;2022-09-17T19:00:18;1.25;;;0.70;;
13321;SDS011;6730;46.248;6.930;2022-09-17T19:02:46;0.60;;;0.60;;
13321;SDS011;6730;46.248;6.930;2022-09-17T19:05:13;1.63;;;0.85;;